sensor_id;sensor_type;location;lat;lon;timestamp;temperature;humidity
1391;DHT22;690;51.454;7.194;2022-12-07T00:01:42;7.70;1.00
1391;DHT22;690;51.454;7.194;2022-12-07T00:04:11;7.70;1.00
1391;DHT22;690;51.454;7.194;2022-12-07T00:06:39;7.70;20.40
1391;DHT22;690;51.454;7.194;2022-12-07T00:09:10;7.70;65.10
1391;DHT22;690;51.454;7.194;2022-12-07T00:11:38;7.70;33.10
1391;DHT22;690;51.454;7.194;2022-12-07T00:14:07;7.70;1.00
1391;DHT22;690;51.454;7.194;2022-12-07T00:16:35;7.70;1.00
1391;DHT22;690;51.454;7.194;2022-12-07T00:19:04;7.60;1.00
1391;DHT22;690;51.454;7.194;2022-12-07T00:21:33;7.60;1.00
1391;DHT22;690;51.454;7.194;2022-12-07T00:24:00;7.60;1.00
1391;DHT22;690;51.454;7.194;2022-12-07T00:26:29;7.60;22.00
1391;DHT22;690;51.454;7.194;2022-12-07T00:28:57;7.60;35.80
1391;DHT22;690;51.454;7.194;2022-12-07T00:31:27;7.60;50.60
1391;DHT22;690;51.454;7.194;2022-12-07T00:33:55;7.50;12.30
1391;DHT22;690;51.454;7.194;2022-12-07T00:36:24;7.50;76.10
1391;DHT22;690;51.454;7.194;2022-12-07T00:38:51;7.50;70.60
1391;DHT22;690;51.454;7.194;2022-12-07T00:41:20;7.50;99.90
1391;DHT22;690;51.454;7.194;2022-12-07T00:43:48;7.50;77.00
1391;DHT22;690;51.454;7.194;2022-12-07T00:46:16;7.50;12.50
1391;DHT22;690;51.454;7.194;2022-12-07T00:48:44;7.50;36.30
1391;DHT22;690;51.454;7.194;2022-12-07T00:51:12;7.50;79.50
1391;DHT22;690;51.454;7.194;2022-12-07T00:53:40;7.50;6.10
1391;DHT22;690;51.454;7.194;2022-12-07T00:56:08;7.50;15.10
1391;DHT22;690;51.454;7.194;2022-12-07T00:58:35;7.50;69.40
1391;DHT22;690;51.454;7.194;2022-12-07T01:01:03;7.50;90.30
1391;DHT22;690;51.454;7.194;2022-12-07T01:03:30;7.40;51.40
1391;DHT22;690;51.454;7.194;2022-12-07T01:05:58;7.50;99.90
1391;DHT22;690;51.454;7.194;2022-12-07T01:08:26;7.40;99.90
1391;DHT22;690;51.454;7.194;2022-12-07T01:10:59;7.40;99.90
1391;DHT22;690;51.454;7.194;2022-12-07T01:13:26;7.40;99.90
1391;DHT22;690;51.454;7.194;2022-12-07T01:15:57;7.40;99.90
1391;DHT22;690;51.454;7.194;2022-12-07T01:18:25;7.50;99.90
1391;DHT22;690;51.454;7.194;2022-12-07T01:20:59;7.50;99.90
1391;DHT22;690;51.454;7.194;2022-12-07T01:23:26;7.50;99.90
1391;DHT22;690;51.454;7.194;2022-12-07T01:25:56;7.50;90.30
1391;DHT22;690;51.454;7.194;2022-12-07T01:28:25;7.40;99.90
1391;DHT22;690;51.454;7.194;2022-12-07T01:30:57;7.40;99.90
1391;DHT22;690;51.454;7.194;2022-12-07T01:33:24;7.40;99.90
1391;DHT22;690;51.454;7.194;2022-12-07T01:35:50;7.40;99.90
1391;DHT22;690;51.454;7.194;2022-12-07T01:38:17;7.40;99.90
1391;DHT22;690;51.454;7.194;2022-12-07T01:40:44;7.40;99.90
1391;DHT22;690;51.454;7.194;2022-12-07T01:43:15;7.40;99.90
1391;DHT22;690;51.454;7.194;2022-12-07T01:45:45;7.40;99.90
1391;DHT22;690;51.454;7.194;2022-12-07T01:48:14;7.40;99.90
1391;DHT22;690;51.454;7.194;2022-12-07T01:50:43;7.40;99.90
1391;DHT22;690;51.454;7.194;2022-12-07T01:53:11;7.40;99.90
1391;DHT22;690;51.454;7.194;2022-12-07T01:55:42;7.40;99.90
1391;DHT22;690;51.454;7.194;2022-12-07T01:58:11;7.40;99.90
1391;DHT22;690;51.454;7.194;2022-12-07T02:00:39;7.40;99.90
1391;DHT22;690;51.454;7.194;2022-12-07T02:03:12;7.40;99.90
1391;DHT22;690;51.454;7.194;2022-12-07T02:05:41;7.40;99.90
1391;DHT22;690;51.454;7.194;2022-12-07T02:08:11;7.40;99.90
1391;DHT22;690;51.454;7.194;2022-12-07T02:10:38;7.40;99.90
1391;DHT22;690;51.454;7.194;2022-12-07T02:13:08;7.40;99.90
1391;DHT22;690;51.454;7.194;2022-12-07T02:15:51;7.40;99.90
1391;DHT22;690;51.454;7.194;2022-12-07T02:18:31;7.40;99.90
1391;DHT22;690;51.454;7.194;2022-12-07T02:21:07;7.30;99.90
1391;DHT22;690;51.454;7.194;2022-12-07T02:24:00;7.40;99.90
1391;DHT22;690;51.454;7.194;2022-12-07T02:29:40;7.40;99.90
1391;DHT22;690;51.454;7.194;2022-12-07T02:32:14;7.40;99.90
1391;DHT22;690;51.454;7.194;2022-12-07T02:34:47;7.40;99.90
1391;DHT22;690;51.454;7.194;2022-12-07T02:37:23;7.40;99.90
1391;DHT22;690;51.454;7.194;2022-12-07T02:39:55;7.40;99.90
1391;DHT22;690;51.454;7.194;2022-12-07T02:42:28;7.40;99.90
1391;DHT22;690;51.454;7.194;2022-12-07T02:44:59;7.40;99.90
1391;DHT22;690;51.454;7.194;2022-12-07T02:47:28;7.40;90.30
1391;DHT22;690;51.454;7.194;2022-12-07T02:49:56;7.40;99.90
1391;DHT22;690;51.454;7.194;2022-12-07T02:52:23;7.30;99.90
1391;DHT22;690;51.454;7.194;2022-12-07T02:54:50;7.30;99.90
1391;DHT22;690;51.454;7.194;2022-12-07T02:57:36;7.30;52.40
1391;DHT22;690;51.454;7.194;2022-12-07T03:00:09;7.30;1.00
1391;DHT22;690;51.454;7.194;2022-12-07T03:02:46;7.30;44.50
1391;DHT22;690;51.454;7.194;2022-12-07T03:05:27;7.20;99.90
1391;DHT22;690;51.454;7.194;2022-12-07T03:08:02;7.20;99.90
1391;DHT22;690;51.454;7.194;2022-12-07T03:10:35;7.20;99.90
1391;DHT22;690;51.454;7.194;2022-12-07T03:13:07;7.30;61.40
1391;DHT22;690;51.454;7.194;2022-12-07T03:15:42;7.20;86.00
1391;DHT22;690;51.454;7.194;2022-12-07T03:18:12;7.20;90.20
1391;DHT22;690;51.454;7.194;2022-12-07T03:20:42;7.20;98.70
1391;DHT22;690;51.454;7.194;2022-12-07T03:23:10;7.10;35.50
1391;DHT22;690;51.454;7.194;2022-12-07T03:25:40;7.10;35.50
1391;DHT22;690;51.454;7.194;2022-12-07T03:28:10;7.10;32.80
1391;DHT22;690;51.454;7.194;2022-12-07T03:30:44;7.10;19.00
1391;DHT22;690;51.454;7.194;2022-12-07T03:33:15;7.00;1.00
1391;DHT22;690;51.454;7.194;2022-12-07T03:35:47;7.00;35.80
1391;DHT22;690;51.454;7.194;2022-12-07T03:38:19;6.90;1.00
1391;DHT22;690;51.454;7.194;2022-12-07T03:40:50;6.90;3.90
1391;DHT22;690;51.454;7.194;2022-12-07T03:43:20;6.80;1.00
1391;DHT22;690;51.454;7.194;2022-12-07T03:45:56;6.90;1.00
1391;DHT22;690;51.454;7.194;2022-12-07T03:48:32;6.80;1.00
1391;DHT22;690;51.454;7.194;2022-12-07T03:51:06;6.70;1.00
1391;DHT22;690;51.454;7.194;2022-12-07T03:53:40;6.70;1.00
1391;DHT22;690;51.454;7.194;2022-12-07T03:56:09;6.70;1.00
1391;DHT22;690;51.454;7.194;2022-12-07T03:58:37;6.70;1.00
1391;DHT22;690;51.454;7.194;2022-12-07T04:01:06;6.60;1.00
1391;DHT22;690;51.454;7.194;2022-12-07T04:03:33;6.60;1.00
1391;DHT22;690;51.454;7.194;2022-12-07T04:06:00;6.50;1.00
1391;DHT22;690;51.454;7.194;2022-12-07T04:08:27;6.50;1.00
1391;DHT22;690;51.454;7.194;2022-12-07T04:10:54;6.50;1.00
1391;DHT22;690;51.454;7.194;2022-12-07T04:13:21;6.50;1.00
1391;DHT22;690;51.454;7.194;2022-12-07T04:15:48;6.50;1.00
1391;DHT22;690;51.454;7.194;2022-12-07T04:18:16;6.50;1.00
1391;DHT22;690;51.454;7.194;2022-12-07T04:20:43;6.50;1.00
1391;DHT22;690;51.454;7.194;2022-12-07T04:23:10;6.50;1.00
1391;DHT22;690;51.454;7.194;2022-12-07T04:25:37;6.50;1.00
1391;DHT22;690;51.454;7.194;2022-12-07T04:28:04;6.40;1.50
1391;DHT22;690;51.454;7.194;2022-12-07T04:30:31;6.50;39.70
1391;DHT22;690;51.454;7.194;2022-12-07T04:32:57;6.40;72.20
1391;DHT22;690;51.454;7.194;2022-12-07T04:35:26;6.40;99.90
1391;DHT22;690;51.454;7.194;2022-12-07T04:37:52;6.50;99.90
1391;DHT22;690;51.454;7.194;2022-12-07T04:40:20;6.50;75.00
1391;DHT22;690;51.454;7.194;2022-12-07T04:42:46;6.50;35.80
1391;DHT22;690;51.454;7.194;2022-12-07T04:45:13;6.50;68.50
1391;DHT22;690;51.454;7.194;2022-12-07T04:47:40;6.50;89.90
1391;DHT22;690;51.454;7.194;2022-12-07T04:50:08;6.50;49.00
1391;DHT22;690;51.454;7.194;2022-12-07T04:52:37;6.50;55.00
1391;DHT22;690;51.454;7.194;2022-12-07T04:55:04;6.50;54.40
1391;DHT22;690;51.454;7.194;2022-12-07T04:57:31;6.50;39.60
1391;DHT22;690;51.454;7.194;2022-12-07T04:59:58;6.50;60.40
1391;DHT22;690;51.454;7.194;2022-12-07T05:02:25;6.50;84.00
1391;DHT22;690;51.454;7.194;2022-12-07T05:04:51;6.50;64.10
1391;DHT22;690;51.454;7.194;2022-12-07T05:07:18;6.50;90.30
1391;DHT22;690;51.454;7.194;2022-12-07T05:09:47;6.50;91.60
1391;DHT22;690;51.454;7.194;2022-12-07T05:12:13;6.50;14.80
1391;DHT22;690;51.454;7.194;2022-12-07T05:14:40;6.50;36.70
1391;DHT22;690;51.454;7.194;2022-12-07T05:17:07;6.50;4.20
1391;DHT22;690;51.454;7.194;2022-12-07T05:19:34;6.50;51.70
1391;DHT22;690;51.454;7.194;2022-12-07T05:22:01;6.40;99.90
1391;DHT22;690;51.454;7.194;2022-12-07T05:24:28;6.40;99.90
1391;DHT22;690;51.454;7.194;2022-12-07T05:26:56;6.40;99.90
1391;DHT22;690;51.454;7.194;2022-12-07T05:29:23;6.40;99.90
1391;DHT22;690;51.454;7.194;2022-12-07T05:31:49;6.40;99.90
1391;DHT22;690;51.454;7.194;2022-12-07T05:34:16;6.40;99.90
1391;DHT22;690;51.454;7.194;2022-12-07T05:36:43;6.40;99.90
1391;DHT22;690;51.454;7.194;2022-12-07T05:39:10;6.40;99.90
1391;DHT22;690;51.454;7.194;2022-12-07T05:41:37;6.40;99.90
1391;DHT22;690;51.454;7.194;2022-12-07T05:44:23;6.40;99.90
1391;DHT22;690;51.454;7.194;2022-12-07T05:46:50;6.40;99.90
1391;DHT22;690;51.454;7.194;2022-12-07T05:49:17;6.40;99.90
1391;DHT22;690;51.454;7.194;2022-12-07T05:51:43;6.40;99.90
1391;DHT22;690;51.454;7.194;2022-12-07T05:54:10;6.40;99.90
1391;DHT22;690;51.454;7.194;2022-12-07T05:56:37;6.40;99.90
1391;DHT22;690;51.454;7.194;2022-12-07T05:59:04;6.40;99.90
1391;DHT22;690;51.454;7.194;2022-12-07T06:01:51;6.40;99.90
1391;DHT22;690;51.454;7.194;2022-12-07T06:04:18;6.40;99.90
1391;DHT22;690;51.454;7.194;2022-12-07T06:06:45;6.40;99.90
1391;DHT22;690;51.454;7.194;2022-12-07T06:09:12;6.40;99.90
1391;DHT22;690;51.454;7.194;2022-12-07T06:11:40;6.40;99.90
1391;DHT22;690;51.454;7.194;2022-12-07T06:14:24;6.40;99.90
1391;DHT22;690;51.454;7.194;2022-12-07T06:16:53;6.30;99.90
1391;DHT22;690;51.454;7.194;2022-12-07T06:19:19;6.40;99.90
1391;DHT22;690;51.454;7.194;2022-12-07T06:21:46;6.30;99.90
1391;DHT22;690;51.454;7.194;2022-12-07T06:24:14;6.40;99.90
1391;DHT22;690;51.454;7.194;2022-12-07T06:26:42;6.40;99.90
1391;DHT22;690;51.454;7.194;2022-12-07T06:29:09;6.40;99.90
1391;DHT22;690;51.454;7.194;2022-12-07T06:31:37;6.40;99.90
1391;DHT22;690;51.454;7.194;2022-12-07T06:34:07;6.40;99.90
1391;DHT22;690;51.454;7.194;2022-12-07T06:36:35;6.40;99.90
1391;DHT22;690;51.454;7.194;2022-12-07T06:39:03;6.30;99.90
1391;DHT22;690;51.454;7.194;2022-12-07T06:41:30;6.30;99.90
1391;DHT22;690;51.454;7.194;2022-12-07T06:43:57;6.30;99.90
1391;DHT22;690;51.454;7.194;2022-12-07T06:46:24;6.30;99.90
1391;DHT22;690;51.454;7.194;2022-12-07T06:48:51;6.30;99.90
1391;DHT22;690;51.454;7.194;2022-12-07T06:51:20;6.30;99.90
1391;DHT22;690;51.454;7.194;2022-12-07T06:53:47;6.20;99.90
1391;DHT22;690;51.454;7.194;2022-12-07T06:56:14;6.20;99.90
1391;DHT22;690;51.454;7.194;2022-12-07T06:58:41;6.20;99.10
1391;DHT22;690;51.454;7.194;2022-12-07T07:01:09;6.20;99.90
1391;DHT22;690;51.454;7.194;2022-12-07T07:03:36;6.10;99.90
1391;DHT22;690;51.454;7.194;2022-12-07T07:06:04;6.10;99.90
1391;DHT22;690;51.454;7.194;2022-12-07T07:08:32;6.10;99.90
1391;DHT22;690;51.454;7.194;2022-12-07T07:10:59;6.10;99.90
1391;DHT22;690;51.454;7.194;2022-12-07T07:13:27;6.10;99.90
1391;DHT22;690;51.454;7.194;2022-12-07T07:15:54;6.10;99.90
1391;DHT22;690;51.454;7.194;2022-12-07T07:18:21;6.10;99.90
1391;DHT22;690;51.454;7.194;2022-12-07T07:20:48;6.10;99.90
1391;DHT22;690;51.454;7.194;2022-12-07T07:23:16;6.10;99.90
1391;DHT22;690;51.454;7.194;2022-12-07T07:25:44;6.10;99.90
1391;DHT22;690;51.454;7.194;2022-12-07T07:28:11;6.10;99.90
1391;DHT22;690;51.454;7.194;2022-12-07T07:30:38;6.10;99.90
1391;DHT22;690;51.454;7.194;2022-12-07T07:33:05;6.10;99.90
1391;DHT22;690;51.454;7.194;2022-12-07T07:35:33;6.10;99.90
1391;DHT22;690;51.454;7.194;2022-12-07T07:38:01;6.10;99.90
1391;DHT22;690;51.454;7.194;2022-12-07T07:40:28;6.10;99.90
1391;DHT22;690;51.454;7.194;2022-12-07T07:42:57;6.00;99.90
1391;DHT22;690;51.454;7.194;2022-12-07T07:45:26;6.00;99.90
1391;DHT22;690;51.454;7.194;2022-12-07T07:47:53;6.00;99.90
1391;DHT22;690;51.454;7.194;2022-12-07T07:50:20;5.90;99.90
1391;DHT22;690;51.454;7.194;2022-12-07T07:52:47;5.90;99.90
1391;DHT22;690;51.454;7.194;2022-12-07T07:55:15;5.90;99.90
1391;DHT22;690;51.454;7.194;2022-12-07T07:57:42;5.90;99.90
1391;DHT22;690;51.454;7.194;2022-12-07T08:00:13;5.90;99.90
1391;DHT22;690;51.454;7.194;2022-12-07T08:02:41;6.00;99.90
1391;DHT22;690;51.454;7.194;2022-12-07T08:05:09;6.00;99.90
1391;DHT22;690;51.454;7.194;2022-12-07T08:07:37;6.10;99.90
1391;DHT22;690;51.454;7.194;2022-12-07T08:10:05;6.10;99.90
1391;DHT22;690;51.454;7.194;2022-12-07T08:12:36;6.20;99.90
1391;DHT22;690;51.454;7.194;2022-12-07T08:15:26;6.20;99.90
1391;DHT22;690;51.454;7.194;2022-12-07T08:17:53;6.20;99.90
1391;DHT22;690;51.454;7.194;2022-12-07T08:20:20;6.20;99.90
1391;DHT22;690;51.454;7.194;2022-12-07T08:22:47;6.20;99.90
1391;DHT22;690;51.454;7.194;2022-12-07T08:25:14;6.30;99.90
1391;DHT22;690;51.454;7.194;2022-12-07T08:27:41;6.30;99.90
1391;DHT22;690;51.454;7.194;2022-12-07T08:30:08;6.30;99.90
1391;DHT22;690;51.454;7.194;2022-12-07T08:32:36;6.40;99.90
1391;DHT22;690;51.454;7.194;2022-12-07T08:35:04;6.40;99.90
1391;DHT22;690;51.454;7.194;2022-12-07T08:37:31;6.50;99.90
1391;DHT22;690;51.454;7.194;2022-12-07T08:39:58;6.50;99.90
1391;DHT22;690;51.454;7.194;2022-12-07T08:42:25;6.60;99.90
1391;DHT22;690;51.454;7.194;2022-12-07T08:44:55;6.60;99.90
1391;DHT22;690;51.454;7.194;2022-12-07T08:47:23;6.60;99.90
1391;DHT22;690;51.454;7.194;2022-12-07T08:49:53;6.60;99.90
1391;DHT22;690;51.454;7.194;2022-12-07T08:52:21;6.60;99.90
1391;DHT22;690;51.454;7.194;2022-12-07T08:54:48;6.70;99.90
1391;DHT22;690;51.454;7.194;2022-12-07T08:57:15;6.70;99.90
1391;DHT22;690;51.454;7.194;2022-12-07T08:59:42;6.70;99.90
1391;DHT22;690;51.454;7.194;2022-12-07T09:02:10;6.80;99.90
1391;DHT22;690;51.454;7.194;2022-12-07T09:04:36;6.80;99.90
1391;DHT22;690;51.454;7.194;2022-12-07T09:07:05;6.80;99.90
1391;DHT22;690;51.454;7.194;2022-12-07T09:09:32;6.80;99.90
1391;DHT22;690;51.454;7.194;2022-12-07T09:11:59;6.80;99.90
1391;DHT22;690;51.454;7.194;2022-12-07T09:14:26;6.90;99.90
1391;DHT22;690;51.454;7.194;2022-12-07T09:16:53;7.00;99.90
1391;DHT22;690;51.454;7.194;2022-12-07T09:19:19;7.00;99.90
1391;DHT22;690;51.454;7.194;2022-12-07T09:21:46;7.00;99.90
1391;DHT22;690;51.454;7.194;2022-12-07T09:24:15;7.10;99.90
1391;DHT22;690;51.454;7.194;2022-12-07T09:26:41;7.10;99.90
1391;DHT22;690;51.454;7.194;2022-12-07T09:29:10;7.10;81.30
1391;DHT22;690;51.454;7.194;2022-12-07T09:31:37;7.10;27.40
1391;DHT22;690;51.454;7.194;2022-12-07T09:34:04;7.20;1.00
1391;DHT22;690;51.454;7.194;2022-12-07T09:36:31;7.10;1.00
1391;DHT22;690;51.454;7.194;2022-12-07T09:38:58;7.10;24.90
1391;DHT22;690;51.454;7.194;2022-12-07T09:41:29;7.10;56.70
1391;DHT22;690;51.454;7.194;2022-12-07T09:44:03;7.20;1.00
1391;DHT22;690;51.454;7.194;2022-12-07T09:46:35;7.20;1.00
1391;DHT22;690;51.454;7.194;2022-12-07T09:49:03;7.30;1.00
1391;DHT22;690;51.454;7.194;2022-12-07T09:51:31;7.30;1.00
1391;DHT22;690;51.454;7.194;2022-12-07T09:53:58;7.30;1.00
1391;DHT22;690;51.454;7.194;2022-12-07T09:56:29;7.30;1.00
1391;DHT22;690;51.454;7.194;2022-12-07T09:58:59;7.30;99.90
1391;DHT22;690;51.454;7.194;2022-12-07T10:01:28;7.30;99.90
1391;DHT22;690;51.454;7.194;2022-12-07T10:04:00;7.30;99.90
1391;DHT22;690;51.454;7.194;2022-12-07T10:06:28;7.30;99.90
1391;DHT22;690;51.454;7.194;2022-12-07T10:08:55;7.30;99.90
1391;DHT22;690;51.454;7.194;2022-12-07T10:11:22;7.30;99.90
1391;DHT22;690;51.454;7.194;2022-12-07T10:13:52;7.30;68.00
1391;DHT22;690;51.454;7.194;2022-12-07T10:16:46;7.30;1.00
1391;DHT22;690;51.454;7.194;2022-12-07T10:19:23;7.30;1.00
1391;DHT22;690;51.454;7.194;2022-12-07T10:22:09;7.30;99.90
1391;DHT22;690;51.454;7.194;2022-12-07T10:24:36;7.40;9.80
1391;DHT22;690;51.454;7.194;2022-12-07T10:27:09;7.50;1.00
1391;DHT22;690;51.454;7.194;2022-12-07T10:29:47;7.60;1.00
1391;DHT22;690;51.454;7.194;2022-12-07T10:32:29;7.70;1.00
1391;DHT22;690;51.454;7.194;2022-12-07T10:35:20;7.70;86.80
1391;DHT22;690;51.454;7.194;2022-12-07T10:37:48;7.70;1.00
1391;DHT22;690;51.454;7.194;2022-12-07T10:40:28;7.70;1.00
1391;DHT22;690;51.454;7.194;2022-12-07T10:43:15;7.60;1.00
1391;DHT22;690;51.454;7.194;2022-12-07T10:46:09;7.60;1.00
1391;DHT22;690;51.454;7.194;2022-12-07T10:48:43;7.60;1.00
1391;DHT22;690;51.454;7.194;2022-12-07T10:51:17;7.70;1.00
1391;DHT22;690;51.454;7.194;2022-12-07T10:53:57;7.70;1.00
1391;DHT22;690;51.454;7.194;2022-12-07T10:56:47;7.70;1.00
1391;DHT22;690;51.454;7.194;2022-12-07T10:59:42;7.70;99.90
1391;DHT22;690;51.454;7.194;2022-12-07T11:02:24;7.80;99.90
1391;DHT22;690;51.454;7.194;2022-12-07T11:05:03;7.80;99.90
1391;DHT22;690;51.454;7.194;2022-12-07T11:07:42;7.90;1.00
1391;DHT22;690;51.454;7.194;2022-12-07T11:10:13;7.80;1.00
1391;DHT22;690;51.454;7.194;2022-12-07T11:12:52;7.80;1.00
1391;DHT22;690;51.454;7.194;2022-12-07T11:15:26;7.90;99.90
1391;DHT22;690;51.454;7.194;2022-12-07T11:18:03;7.90;99.90
1391;DHT22;690;51.454;7.194;2022-12-07T11:20:43;8.00;99.90
1391;DHT22;690;51.454;7.194;2022-12-07T11:23:18;8.00;99.90
1391;DHT22;690;51.454;7.194;2022-12-07T11:25:53;8.00;99.90
1391;DHT22;690;51.454;7.194;2022-12-07T11:28:40;8.10;99.90
1391;DHT22;690;51.454;7.194;2022-12-07T11:31:13;8.10;99.90
1391;DHT22;690;51.454;7.194;2022-12-07T11:33:47;8.10;99.90
1391;DHT22;690;51.454;7.194;2022-12-07T11:36:32;8.20;99.90
1391;DHT22;690;51.454;7.194;2022-12-07T11:39:02;8.20;99.90
1391;DHT22;690;51.454;7.194;2022-12-07T11:41:34;8.20;99.90
1391;DHT22;690;51.454;7.194;2022-12-07T11:44:05;8.20;64.30
1391;DHT22;690;51.454;7.194;2022-12-07T11:46:45;8.20;99.90
1391;DHT22;690;51.454;7.194;2022-12-07T11:49:19;8.20;62.50
1391;DHT22;690;51.454;7.194;2022-12-07T11:51:50;8.20;1.00
1391;DHT22;690;51.454;7.194;2022-12-07T11:54:20;8.20;1.00
1391;DHT22;690;51.454;7.194;2022-12-07T11:56:50;8.20;1.00
1391;DHT22;690;51.454;7.194;2022-12-07T11:59:22;8.20;1.00
1391;DHT22;690;51.454;7.194;2022-12-07T12:01:53;8.20;1.00
1391;DHT22;690;51.454;7.194;2022-12-07T12:04:30;8.10;1.00
1391;DHT22;690;51.454;7.194;2022-12-07T12:06:59;8.10;1.00
1391;DHT22;690;51.454;7.194;2022-12-07T12:09:29;8.10;1.00
1391;DHT22;690;51.454;7.194;2022-12-07T12:12:13;8.10;1.00
1391;DHT22;690;51.454;7.194;2022-12-07T12:14:52;8.10;1.00
1391;DHT22;690;51.454;7.194;2022-12-07T12:17:38;8.20;1.00
1391;DHT22;690;51.454;7.194;2022-12-07T12:20:20;8.20;1.00
1391;DHT22;690;51.454;7.194;2022-12-07T12:22:52;8.20;1.00
1391;DHT22;690;51.454;7.194;2022-12-07T12:25:23;8.20;99.90
1391;DHT22;690;51.454;7.194;2022-12-07T12:27:52;8.20;99.90
1391;DHT22;690;51.454;7.194;2022-12-07T12:30:35;8.30;99.90
1391;DHT22;690;51.454;7.194;2022-12-07T12:33:05;8.30;99.90
1391;DHT22;690;51.454;7.194;2022-12-07T12:35:35;8.20;99.90
1391;DHT22;690;51.454;7.194;2022-12-07T12:38:29;8.20;99.90
1391;DHT22;690;51.454;7.194;2022-12-07T12:40:56;8.20;99.90
1391;DHT22;690;51.454;7.194;2022-12-07T12:43:49;8.20;99.90
1391;DHT22;690;51.454;7.194;2022-12-07T12:46:51;8.30;99.90
1391;DHT22;690;51.454;7.194;2022-12-07T12:49:40;8.20;99.90
1391;DHT22;690;51.454;7.194;2022-12-07T12:55:29;8.30;99.90
1391;DHT22;690;51.454;7.194;2022-12-07T12:58:40;8.30;99.90
1391;DHT22;690;51.454;7.194;2022-12-07T13:01:40;8.30;99.90
1391;DHT22;690;51.454;7.194;2022-12-07T13:04:28;8.30;99.90
1391;DHT22;690;51.454;7.194;2022-12-07T13:06:57;8.30;99.90
1391;DHT22;690;51.454;7.194;2022-12-07T13:09:26;8.30;99.90
1391;DHT22;690;51.454;7.194;2022-12-07T13:12:02;8.30;96.90
1391;DHT22;690;51.454;7.194;2022-12-07T13:14:52;8.30;67.90
1391;DHT22;690;51.454;7.194;2022-12-07T13:18:00;8.30;48.00
1391;DHT22;690;51.454;7.194;2022-12-07T13:20:54;8.20;32.20
1391;DHT22;690;51.454;7.194;2022-12-07T13:23:28;8.20;15.80
1391;DHT22;690;51.454;7.194;2022-12-07T13:26:12;8.20;17.60
1391;DHT22;690;51.454;7.194;2022-12-07T13:28:43;8.20;15.70
1391;DHT22;690;51.454;7.194;2022-12-07T13:31:25;8.20;13.20
1391;DHT22;690;51.454;7.194;2022-12-07T13:33:55;8.20;21.30
1391;DHT22;690;51.454;7.194;2022-12-07T13:36:24;8.20;14.40
1391;DHT22;690;51.454;7.194;2022-12-07T13:38:53;8.20;13.60
1391;DHT22;690;51.454;7.194;2022-12-07T13:41:21;8.20;18.00
1391;DHT22;690;51.454;7.194;2022-12-07T13:43:53;8.20;16.40
1391;DHT22;690;51.454;7.194;2022-12-07T13:46:25;8.30;1.00
1391;DHT22;690;51.454;7.194;2022-12-07T13:48:53;8.30;1.00
1391;DHT22;690;51.454;7.194;2022-12-07T13:51:23;8.20;5.70
1391;DHT22;690;51.454;7.194;2022-12-07T13:53:52;8.20;19.90
1391;DHT22;690;51.454;7.194;2022-12-07T13:56:22;8.10;19.00
1391;DHT22;690;51.454;7.194;2022-12-07T13:58:50;8.10;34.70
1391;DHT22;690;51.454;7.194;2022-12-07T14:01:17;8.20;40.40
1391;DHT22;690;51.454;7.194;2022-12-07T14:03:45;8.10;41.20
1391;DHT22;690;51.454;7.194;2022-12-07T14:06:24;8.10;38.10
1391;DHT22;690;51.454;7.194;2022-12-07T14:09:09;8.10;33.30
1391;DHT22;690;51.454;7.194;2022-12-07T14:11:43;8.00;10.50
1391;DHT22;690;51.454;7.194;2022-12-07T14:14:15;8.00;1.00
1391;DHT22;690;51.454;7.194;2022-12-07T14:16:43;7.90;1.00
1391;DHT22;690;51.454;7.194;2022-12-07T14:19:44;7.80;1.00
1391;DHT22;690;51.454;7.194;2022-12-07T14:22:21;7.70;1.00
1391;DHT22;690;51.454;7.194;2022-12-07T14:24:49;7.70;1.00
1391;DHT22;690;51.454;7.194;2022-12-07T14:27:20;7.70;1.00
1391;DHT22;690;51.454;7.194;2022-12-07T14:29:49;7.70;1.00
1391;DHT22;690;51.454;7.194;2022-12-07T14:32:20;7.70;3.40
1391;DHT22;690;51.454;7.194;2022-12-07T14:34:56;7.70;3.30
1391;DHT22;690;51.454;7.194;2022-12-07T14:37:23;7.70;1.00
1391;DHT22;690;51.454;7.194;2022-12-07T14:39:50;7.70;3.20
1391;DHT22;690;51.454;7.194;2022-12-07T14:42:17;7.60;12.40
1391;DHT22;690;51.454;7.194;2022-12-07T14:44:44;7.60;12.50
1391;DHT22;690;51.454;7.194;2022-12-07T14:47:13;7.60;17.80
1391;DHT22;690;51.454;7.194;2022-12-07T14:49:40;7.60;24.60
1391;DHT22;690;51.454;7.194;2022-12-07T14:52:13;7.60;23.40
1391;DHT22;690;51.454;7.194;2022-12-07T14:54:41;7.60;26.20
1391;DHT22;690;51.454;7.194;2022-12-07T14:57:08;7.50;24.40
1391;DHT22;690;51.454;7.194;2022-12-07T14:59:35;7.50;27.00
1391;DHT22;690;51.454;7.194;2022-12-07T15:02:02;7.50;24.50
1391;DHT22;690;51.454;7.194;2022-12-07T15:04:31;7.40;31.50
1391;DHT22;690;51.454;7.194;2022-12-07T15:06:59;7.40;41.10
1391;DHT22;690;51.454;7.194;2022-12-07T15:09:26;7.40;55.40
1391;DHT22;690;51.454;7.194;2022-12-07T15:11:53;7.30;64.40
1391;DHT22;690;51.454;7.194;2022-12-07T15:14:20;7.30;73.40
1391;DHT22;690;51.454;7.194;2022-12-07T15:16:47;7.20;92.70
1391;DHT22;690;51.454;7.194;2022-12-07T15:19:15;7.20;99.90
1391;DHT22;690;51.454;7.194;2022-12-07T15:21:44;7.10;99.90
1391;DHT22;690;51.454;7.194;2022-12-07T15:24:11;7.10;99.90
1391;DHT22;690;51.454;7.194;2022-12-07T15:26:40;7.10;99.90
1391;DHT22;690;51.454;7.194;2022-12-07T15:29:07;7.10;99.90
1391;DHT22;690;51.454;7.194;2022-12-07T15:31:34;7.10;99.90
1391;DHT22;690;51.454;7.194;2022-12-07T15:34:02;7.00;99.90
1391;DHT22;690;51.454;7.194;2022-12-07T15:36:31;7.00;99.90
1391;DHT22;690;51.454;7.194;2022-12-07T15:38:59;7.00;99.90
1391;DHT22;690;51.454;7.194;2022-12-07T15:41:26;7.00;99.90
1391;DHT22;690;51.454;7.194;2022-12-07T15:43:53;7.00;99.90
1391;DHT22;690;51.454;7.194;2022-12-07T15:46:39;7.00;99.90
1391;DHT22;690;51.454;7.194;2022-12-07T15:49:10;7.00;99.90
1391;DHT22;690;51.454;7.194;2022-12-07T15:51:38;7.00;99.90
1391;DHT22;690;51.454;7.194;2022-12-07T15:54:06;7.00;99.90
1391;DHT22;690;51.454;7.194;2022-12-07T15:56:33;7.00;99.90
1391;DHT22;690;51.454;7.194;2022-12-07T15:59:00;7.00;99.90
1391;DHT22;690;51.454;7.194;2022-12-07T16:01:27;7.00;99.90
1391;DHT22;690;51.454;7.194;2022-12-07T16:03:54;7.00;99.90
1391;DHT22;690;51.454;7.194;2022-12-07T16:06:21;7.10;99.90
1391;DHT22;690;51.454;7.194;2022-12-07T16:08:47;7.10;99.90
1391;DHT22;690;51.454;7.194;2022-12-07T16:11:16;7.10;1.00
1391;DHT22;690;51.454;7.194;2022-12-07T16:13:43;7.10;1.00
1391;DHT22;690;51.454;7.194;2022-12-07T16:16:12;7.10;1.00
1391;DHT22;690;51.454;7.194;2022-12-07T16:18:39;7.10;1.00
1391;DHT22;690;51.454;7.194;2022-12-07T16:21:06;7.10;1.00
1391;DHT22;690;51.454;7.194;2022-12-07T16:23:33;7.10;1.00
1391;DHT22;690;51.454;7.194;2022-12-07T16:26:05;7.10;1.00
1391;DHT22;690;51.454;7.194;2022-12-07T16:28:33;7.10;1.00
1391;DHT22;690;51.454;7.194;2022-12-07T16:31:05;7.20;1.00
1391;DHT22;690;51.454;7.194;2022-12-07T16:33:34;7.20;1.00
1391;DHT22;690;51.454;7.194;2022-12-07T16:36:02;7.20;1.00
1391;DHT22;690;51.454;7.194;2022-12-07T16:38:29;7.20;1.00
1391;DHT22;690;51.454;7.194;2022-12-07T16:40:57;7.20;1.00
1391;DHT22;690;51.454;7.194;2022-12-07T16:43:24;7.20;1.00
1391;DHT22;690;51.454;7.194;2022-12-07T16:45:53;7.20;1.00
1391;DHT22;690;51.454;7.194;2022-12-07T16:48:20;7.20;1.00
1391;DHT22;690;51.454;7.194;2022-12-07T16:50:47;7.20;1.00
1391;DHT22;690;51.454;7.194;2022-12-07T16:53:14;7.20;1.00
1391;DHT22;690;51.454;7.194;2022-12-07T16:55:43;7.20;1.00
1391;DHT22;690;51.454;7.194;2022-12-07T16:58:11;7.20;1.00
1391;DHT22;690;51.454;7.194;2022-12-07T17:00:39;7.20;1.00
1391;DHT22;690;51.454;7.194;2022-12-07T17:03:07;7.20;1.00
1391;DHT22;690;51.454;7.194;2022-12-07T17:05:37;7.20;1.00
1391;DHT22;690;51.454;7.194;2022-12-07T17:08:05;7.20;1.00
1391;DHT22;690;51.454;7.194;2022-12-07T17:10:34;7.20;1.00